Huvudsida
METAR-TAF:

METAR-TAF

Flygplatser :

Alice Springs Airport

Alice Springs, Australien

latitud: 23-48S, longitud: 133-53E, höjd: 545 m

Aktuellt väderrapport

Denna rapport gjordes för 24 minuter sedan, klockan 06:00 UTC
Vind 16 kt från ost/sydost
Temperatur 21°C
Fuktighet 28%
Tryck 1024 hPa
Sikt 10 km eller mer

METAR: YBAS 220600Z AUTO 12016KT 9999 // NCD 21/02 Q1024 RF00.0/000.0

Tid: 15:54 (06:24 UTC)

Väderprognos

Denna rapport gjordes för 1 timme och 21 minuter sedan, klockan 05:03 UTC
Prognos gäller från 22 kl. 06 UTC till 23 kl. 06 UTC
Vind 15 kt från ost i byarna ända upp till 25 kt
Sikt 10 km eller mer
Inga moln under 1 500 m eller inga cumulonimbus
Från 22 kl. 0800 UTC
Vind 8 kt från ost/sydost
Sikt 10 km eller mer
Inga moln under 1 500 m eller inga cumulonimbus
Från 23 kl. 0000 UTC
Vind 14 kt från ost/sydost
Sikt 10 km eller mer
Inga moln under 1 500 m eller inga cumulonimbus

TAF: YBAS 220503Z 2206/2306 10015G25KT CAVOK FM220800 11008KT CAVOK FM230000 11014KT CAVOK

Aktuella väderrapporter och prognoser från 4000 flygplatser (METAR- och TAF-rapporter).

De tillgängliga stationerna syns som gula och röda prickar på kartan.

För musen över prickarna för att se namnen på stationerna.

Klicka sedan för att få väderrapporter och prognoser.

För att ändra kartan: Klicka på de gröna knapparna med ett svart kors på för att zooma in; den gröna knappen med ett streck på för att zooma ut; eller på de gröna pilarna för angränsande kartor.


METAR-TAF: